Time;durP1;ratioP1;P1;durP2;ratioP2;P2;SDS_P1;SDS_P2;PMS_P1;PMS_P2;Temp;Humidity;BMP_temperature;BMP_pressure;BME280_temperature;BME280_humidity;BME280_pressure;Samples;Min_cycle;Max_cycle;Signal;HPM_P1;HPM_P2
2022/03/28 00:00:48;;;;;;;19.20;10.37;;;;;;;8.93;56.59;98085.38;6271848;22;20165;-88
2022/03/28 00:03:15;;;;;;;13.37;9.10;;;;;;;8.68;57.46;98135.84;6272740;22;20596;-88
2022/03/28 00:05:42;;;;;;;15.93;8.97;;;;;;;8.38;58.30;98111.53;6272205;22;20207;-87
2022/03/28 00:08:09;;;;;;;21.20;11.53;;;;;;;8.50;57.42;98106.09;6276809;22;20189;-89
2022/03/28 00:10:36;;;;;;;15.20;9.63;;;;;;;8.77;57.40;98107.25;6274232;22;20168;-86
2022/03/28 00:13:03;;;;;;;19.20;9.87;;;;;;;9.10;57.28;98144.41;6270162;22;20161;-86
2022/03/28 00:15:33;;;;;;;10.60;7.33;;;;;;;8.86;57.15;98117.41;6271014;22;20179;-86
2022/03/28 00:18:04;;;;;;;13.57;7.93;;;;;;;8.86;57.05;98138.06;6269490;22;20223;-85
2022/03/28 00:20:31;;;;;;;11.63;7.27;;;;;;;8.55;57.57;98121.50;6244072;22;20164;-86
2022/03/28 00:22:57;;;;;;;12.50;7.37;;;;;;;8.84;57.93;98147.56;6269582;22;20171;-87
2022/03/28 00:25:25;;;;;;;14.30;8.30;;;;;;;8.62;57.68;98126.50;6243414;22;20211;-91
2022/03/28 00:27:52;;;;;;;12.83;8.00;;;;;;;8.59;57.97;98146.38;6270457;22;20168;-88
2022/03/28 00:30:20;;;;;;;11.10;7.23;;;;;;;8.30;57.88;98125.44;6243891;22;20240;-86
2022/03/28 00:32:47;;;;;;;14.33;8.10;;;;;;;8.03;59.82;98153.44;6271789;22;20588;-85
2022/03/28 00:35:14;;;;;;;14.60;7.53;;;;;;;8.00;59.75;98152.63;6242778;22;20627;-85
2022/03/28 00:37:41;;;;;;;13.83;7.67;;;;;;;7.65;58.75;98050.13;6243771;22;20172;-85
2022/03/28 00:40:10;;;;;;;15.33;7.83;;;;;;;8.36;59.02;98141.66;6269775;22;20164;-84
2022/03/28 00:42:38;;;;;;;15.93;8.43;;;;;;;8.11;59.01;98120.63;6270175;22;20250;-87
2022/03/28 00:45:06;;;;;;;12.80;8.17;;;;;;;8.18;59.30;98160.06;6269728;22;20195;-87
2022/03/28 00:47:34;;;;;;;14.63;7.90;;;;;;;8.11;60.29;98145.56;6269495;22;20601;-86
2022/03/28 00:50:04;;;;;;;14.17;8.07;;;;;;;8.01;59.77;98155.19;6270666;22;20165;-85
2022/03/28 00:52:35;;;;;;;20.83;9.87;;;;;;;7.51;60.61;98119.09;6241823;22;20183;-86
2022/03/28 00:55:07;;;;;;;15.10;10.10;;;;;;;7.78;61.45;98152.16;6244984;22;20247;-87
2022/03/28 00:57:36;;;;;;;14.73;9.17;;;;;;;7.65;61.37;98144.63;6270237;22;20253;-86
2022/03/28 01:00:09;;;;;;;13.87;8.40;;;;;;;7.58;61.51;98154.22;6243413;22;20620;-85
2022/03/28 01:02:37;;;;;;;13.00;7.30;;;;;;;7.51;61.77;98151.75;6270223;22;20192;-86
2022/03/28 01:05:06;;;;;;;13.53;7.20;;;;;;;7.31;63.54;98139.19;6269630;22;20219;-89
2022/03/28 01:07:33;;;;;;;14.70;7.53;;;;;;;7.69;62.59;98149.72;6272998;22;20168;-92
2022/03/28 01:10:02;;;;;;;12.83;8.20;;;;;;;7.59;61.99;98148.19;6272004;22;20168;-86
2022/03/28 01:12:31;;;;;;;14.37;7.33;;;;;;;7.25;62.50;98129.81;6273746;22;20215;-91
2022/03/28 01:14:59;;;;;;;11.77;7.40;;;;;;;7.40;61.89;98126.16;6244087;22;20172;-95
2022/03/28 01:20:12;;;;;;;12.97;7.50;;;;;;;7.55;60.85;98123.34;6273156;22;20195;-96
2022/03/28 01:22:39;;;;;;;15.07;8.07;;;;;;;7.71;60.79;98124.78;6243692;22;20203;-93
2022/03/28 01:25:08;;;;;;;13.30;7.57;;;;;;;7.95;60.01;98155.31;6245338;22;20196;-90
2022/03/28 01:27:36;;;;;;;14.63;8.30;;;;;;;7.51;61.51;98134.56;6271170;22;20194;-88
2022/03/28 01:30:06;;;;;;;12.50;7.67;;;;;;;7.58;61.63;98156.81;6246596;22;20525;-95
2022/03/28 01:32:38;;;;;;;19.97;8.53;;;;;;;7.17;62.11;98110.22;6219173;22;20171;-86
2022/03/28 01:35:06;;;;;;;16.43;8.40;;;;;;;7.26;61.50;98121.22;6270262;22;20172;-86
2022/03/28 01:37:33;;;;;;;16.90;8.67;;;;;;;7.06;63.04;98158.44;6270509;22;20511;-88
2022/03/28 01:40:04;;;;;;;15.70;8.83;;;;;;;7.26;63.83;98174.47;6272111;22;20169;-86
2022/03/28 01:42:31;;;;;;;17.40;8.13;;;;;;;7.14;63.20;98143.72;6245835;22;20730;-86
2022/03/28 01:44:59;;;;;;;13.30;8.80;;;;;;;7.29;63.29;98166.72;6273828;22;20188;-86
2022/03/28 01:47:28;;;;;;;13.73;8.80;;;;;;;7.01;62.98;98119.03;6272681;22;20180;-85
2022/03/28 01:49:56;;;;;;;16.70;9.00;;;;;;;6.91;63.10;98083.97;6272600;22;20517;-86
2022/03/28 01:52:25;;;;;;;14.57;8.60;;;;;;;7.06;62.83;98127.53;6219452;22;20264;-86
2022/03/28 01:54:53;;;;;;;14.77;8.90;;;;;;;7.08;62.75;98131.81;6272373;22;20548;-84
2022/03/28 01:57:20;;;;;;;13.77;8.97;;;;;;;7.02;63.44;98167.09;6268482;22;20169;-87
2022/03/28 01:59:48;;;;;;;14.53;8.43;;;;;;;6.61;65.42;98138.47;6244588;22;20524;-86
2022/03/28 02:02:15;;;;;;;15.43;8.90;;;;;;;6.43;66.00;98154.97;6242590;22;20182;-87
2022/03/28 02:04:42;;;;;;;15.77;8.57;;;;;;;6.04;66.76;98135.69;6245664;22;20275;-86
2022/03/28 02:07:09;;;;;;;18.50;8.47;;;;;;;6.12;67.55;98154.44;6247009;22;20161;-87
2022/03/28 02:09:36;;;;;;;15.13;9.47;;;;;;;6.12;67.30;98159.59;6282570;22;20643;-86
2022/03/28 02:12:06;;;;;;;16.13;9.07;;;;;;;5.50;68.74;98105.34;6249045;22;20176;-86
2022/03/28 02:14:33;;;;;;;21.93;9.83;;;;;;;5.96;67.74;98127.19;6244880;22;20197;-87
2022/03/28 02:17:01;;;;;;;18.27;10.90;;;;;;;5.92;67.81;98151.25;6270910;22;20511;-86
2022/03/28 02:19:29;;;;;;;18.97;10.40;;;;;;;5.87;68.28;98123.88;6243075;22;20174;-86
2022/03/28 02:21:57;;;;;;;19.67;10.97;;;;;;;5.99;68.72;98158.03;6270848;22;20169;-86
2022/03/28 02:24:24;;;;;;;20.67;10.80;;;;;;;6.10;67.61;98155.34;6241625;22;20248;-84
2022/03/28 02:26:51;;;;;;;17.27;10.47;;;;;;;6.19;67.64;98153.53;6243298;22;20178;-86
2022/03/28 02:29:20;;;;;;;18.90;9.67;;;;;;;6.17;68.64;98170.69;6216389;22;20180;-86
2022/03/28 02:31:47;;;;;;;20.97;9.67;;;;;;;6.02;68.73;98160.56;6271283;22;20165;-86
2022/03/28 02:34:15;;;;;;;14.00;8.63;;;;;;;6.00;68.40;98139.16;6244142;22;20182;-87
2022/03/28 02:36:44;;;;;;;15.13;8.83;;;;;;;6.06;67.83;98177.66;6244009;22;20159;-88
2022/03/28 02:39:11;;;;;;;14.77;8.67;;;;;;;5.89;68.86;98169.28;6245861;22;20253;-87
2022/03/28 02:41:40;;;;;;;16.37;9.20;;;;;;;5.78;69.32;98174.47;6244544;22;20160;-85
2022/03/28 02:44:07;;;;;;;15.67;9.10;;;;;;;5.57;69.25;98124.97;6245039;22;20198;-87
2022/03/28 02:46:34;;;;;;;15.43;8.90;;;;;;;6.00;68.08;98184.56;6243806;22;20167;-86
2022/03/28 02:49:02;;;;;;;15.97;8.50;;;;;;;5.75;69.09;98158.22;6245696;22;20179;-86
2022/03/28 02:51:29;;;;;;;16.47;9.50;;;;;;;5.98;68.99;98187.16;6269641;22;20658;-86
2022/03/28 02:53:58;;;;;;;14.73;8.60;;;;;;;5.97;68.41;98179.47;6271254;22;20180;-87
2022/03/28 02:56:25;;;;;;;16.77;8.60;;;;;;;6.15;67.62;98185.28;6271070;22;20168;-85
2022/03/28 02:58:53;;;;;;;14.50;8.90;;;;;;;6.00;68.15;98169.16;6218646;22;20635;-88
2022/03/28 03:01:23;;;;;;;14.00;9.30;;;;;;;5.45;68.79;98101.97;6271620;22;20255;-86
2022/03/28 03:03:52;;;;;;;15.63;8.47;;;;;;;5.67;67.97;98150.56;6243714;22;20184;-86
2022/03/28 03:06:20;;;;;;;16.07;8.93;;;;;;;5.72;68.22;98191.66;6245242;22;20554;-86
2022/03/28 03:08:48;;;;;;;13.97;8.90;;;;;;;5.21;69.67;98162.09;6273506;22;20191;-87
2022/03/28 03:11:16;;;;;;;15.17;8.13;;;;;;;5.38;69.72;98203.06;6246051;22;20172;-85
2022/03/28 03:13:45;;;;;;;12.83;8.63;;;;;;;5.39;69.29;98190.22;6272558;22;20173;-86
2022/03/28 03:16:12;;;;;;;18.60;8.63;;;;;;;5.39;68.93;98155.97;6274846;22;20162;-85
2022/03/28 03:18:42;;;;;;;18.67;9.63;;;;;;;5.55;67.86;98149.81;6261339;22;20171;-87
2022/03/28 03:21:09;;;;;;;12.63;7.63;;;;;;;5.86;67.48;98186.41;6273491;22;20164;-86
2022/03/28 03:23:37;;;;;;;15.90;9.50;;;;;;;6.14;66.06;98177.59;6264458;22;20185;-84
2022/03/28 03:26:04;;;;;;;14.17;9.00;;;;;;;6.32;65.41;98178.25;6273098;22;20193;-84
2022/03/28 03:28:31;;;;;;;13.90;8.83;;;;;;;6.09;65.28;98190.50;6250714;22;20162;-85
2022/03/28 03:31:01;;;;;;;19.27;9.10;;;;;;;5.73;66.94;98180.50;6301879;22;20166;-86
2022/03/28 03:33:29;;;;;;;14.53;9.17;;;;;;;5.28;67.38;98165.44;6301822;22;20179;-89
2022/03/28 03:36:00;;;;;;;20.33;9.77;;;;;;;5.54;68.11;98205.47;6302116;22;20226;-83
2022/03/28 03:38:27;;;;;;;16.30;9.13;;;;;;;5.70;67.44;98208.81;6301371;22;20156;-84
2022/03/28 03:40:54;;;;;;;21.53;11.17;;;;;;;5.59;66.82;98161.78;6256336;22;20173;-83
2022/03/28 03:43:22;;;;;;;16.73;9.80;;;;;;;5.75;67.00;98204.47;6256450;22;20715;-85
2022/03/28 03:45:49;;;;;;;16.33;9.87;;;;;;;5.71;66.59;98192.50;6244457;22;20207;-86
2022/03/28 03:48:22;;;;;;;17.67;9.47;;;;;;;5.88;66.40;98213.81;6270510;22;20172;-86
2022/03/28 03:50:56;;;;;;;14.70;8.87;;;;;;;5.77;65.71;98177.03;6224063;22;20200;-88
2022/03/28 03:53:28;;;;;;;17.93;10.63;;;;;;;5.95;66.46;98223.19;6287376;22;20190;-85
2022/03/28 03:56:10;;;;;;;16.33;9.93;;;;;;;5.62;66.94;98200.31;6274394;22;20164;-89
2022/03/28 03:58:39;;;;;;;19.33;10.67;;;;;;;5.54;67.36;98209.78;6276945;22;20171;-88
2022/03/28 04:01:08;;;;;;;21.17;10.67;;;;;;;5.50;67.53;98231.22;6277462;22;20247;-88
2022/03/28 04:03:39;;;;;;;26.93;10.57;;;;;;;5.46;67.58;98219.28;6247760;22;20164;-90
2022/03/28 04:06:10;;;;;;;19.83;9.53;;;;;;;5.58;68.53;98234.59;6270497;22;20205;-86
2022/03/28 04:08:39;;;;;;;17.20;9.90;;;;;;;5.57;68.34;98250.88;6271214;22;20166;-86
2022/03/28 04:11:09;;;;;;;16.30;10.23;;;;;;;5.11;69.79;98216.06;6270073;22;20584;-85
2022/03/28 04:13:36;;;;;;;16.57;9.50;;;;;;;5.10;70.41;98252.84;6272611;22;20223;-87
2022/03/28 04:16:07;;;;;;;19.57;10.53;;;;;;;4.89;70.59;98244.41;6243354;22;20530;-87
2022/03/28 04:18:38;;;;;;;23.00;10.13;;;;;;;4.62;71.30;98223.97;6271406;22;20192;-85
2022/03/28 04:21:09;;;;;;;16.90;10.53;;;;;;;4.93;71.03;98256.34;6220402;22;20258;-87
2022/03/28 04:24:25;;;;;;;17.73;10.57;;;;;;;4.72;72.07;98259.00;6250945;22;20535;-85
2022/03/28 04:26:52;;;;;;;25.87;11.43;;;;;;;4.70;72.49;98267.53;6271508;22;20710;-85
2022/03/28 04:29:20;;;;;;;19.73;10.30;;;;;;;4.58;72.50;98257.31;6219060;22;20655;-85
2022/03/28 04:31:48;;;;;;;18.87;11.40;;;;;;;4.50;72.73;98234.28;6271014;22;20172;-86
2022/03/28 04:34:17;;;;;;;20.33;11.20;;;;;;;4.42;72.94;98228.31;6244688;22;20180;-87
2022/03/28 04:36:45;;;;;;;21.63;11.30;;;;;;;4.72;72.99;98276.09;6270062;22;20201;-86
2022/03/28 04:39:12;;;;;;;19.13;11.80;;;;;;;4.46;73.37;98227.44;6270957;22;20172;-86
2022/03/28 04:41:43;;;;;;;17.50;10.87;;;;;;;4.79;73.19;98281.22;6242160;22;20174;-86
2022/03/28 04:44:12;;;;;;;14.77;9.90;;;;;;;4.73;73.90;98258.16;6271061;22;20231;-88
2022/03/28 04:46:40;;;;;;;23.70;11.30;;;;;;;5.15;72.04;98269.09;6242777;22;20194;-83
2022/03/28 04:49:10;;;;;;;23.60;11.70;;;;;;;4.93;71.67;98232.41;6270169;22;20253;-85
2022/03/28 04:51:41;;;;;;;19.73;11.67;;;;;;;4.94;72.00;98234.97;6245816;22;20161;-85
2022/03/28 04:54:09;;;;;;;18.60;10.93;;;;;;;5.66;70.88;98291.94;6242731;22;20174;-84
2022/03/28 04:56:43;;;;;;;20.43;11.63;;;;;;;5.66;70.49;98248.25;6248611;22;20205;-92
2022/03/28 04:59:13;;;;;;;16.20;10.47;;;;;;;5.69;69.95;98267.06;6249443;22;20239;-93
2022/03/28 05:01:41;;;;;;;16.00;10.97;;;;;;;5.89;69.62;98286.66;6275866;22;20161;-93
2022/03/28 05:04:09;;;;;;;23.03;12.23;;;;;;;5.83;69.42;98260.97;6278790;22;20168;-93
2022/03/28 05:06:36;;;;;;;24.37;12.43;;;;;;;6.15;69.07;98277.88;6271995;22;20538;-86
2022/03/28 05:09:06;;;;;;;21.30;12.00;;;;;;;6.18;68.59;98256.44;6244117;22;20170;-86
2022/03/28 05:11:34;;;;;;;16.83;10.80;;;;;;;6.17;66.86;98208.41;6219389;22;20168;-89
2022/03/28 05:14:02;;;;;;;26.00;11.53;;;;;;;6.69;66.66;98270.47;6272301;22;20182;-85
2022/03/28 05:16:31;;;;;;;17.90;11.10;;;;;;;6.29;65.85;98190.28;6271814;22;20170;-84
2022/03/28 05:18:59;;;;;;;22.03;11.10;;;;;;;6.64;67.29;98267.94;6273425;22;20168;-91
2022/03/28 05:21:29;;;;;;;18.93;10.87;;;;;;;6.78;66.40;98278.94;6271909;22;20505;-85
2022/03/28 05:23:56;;;;;;;31.00;11.70;;;;;;;6.75;65.87;98260.13;6270532;22;20589;-85
2022/03/28 05:26:26;;;;;;;18.60;11.03;;;;;;;6.88;65.14;98246.25;6271179;22;20196;-85
2022/03/28 05:28:54;;;;;;;20.70;11.73;;;;;;;7.15;64.88;98251.06;6243557;22;20972;-85
2022/03/28 05:31:40;;;;;;;24.03;13.70;;;;;;;7.73;63.23;98261.41;6272562;22;20172;-86
2022/03/28 05:34:18;;;;;;;19.43;11.83;;;;;;;8.20;61.64;98288.13;6277646;22;20160;-85
2022/03/28 05:37:14;;;;;;;19.07;11.63;;;;;;;8.38;60.16;98278.41;6272349;22;20225;-86
2022/03/28 05:39:52;;;;;;;21.20;12.83;;;;;;;8.53;59.90;98298.81;6247217;22;20243;-87
2022/03/28 05:42:32;;;;;;;19.83;11.57;;;;;;;8.38;59.24;98222.50;6249147;22;20212;-84
2022/03/28 05:45:00;;;;;;;22.13;12.40;;;;;;;8.76;58.35;98302.66;6248866;22;20675;-87
2022/03/28 05:47:29;;;;;;;28.30;12.50;;;;;;;8.98;59.09;98297.97;6271870;22;20169;-87
2022/03/28 05:49:57;;;;;;;20.27;11.73;;;;;;;8.51;58.75;98249.78;6274605;22;20184;-90
2022/03/28 05:52:37;;;;;;;22.73;11.70;;;;;;;7.75;59.81;98216.66;6232596;22;20239;-86
2022/03/28 05:55:08;;;;;;;22.17;13.30;;;;;;;7.85;61.62;98258.66;6250498;22;20168;-86
2022/03/28 05:57:38;;;;;;;24.40;11.73;;;;;;;8.13;60.30;98278.81;6280648;22;20160;-91
2022/03/28 06:00:13;;;;;;;18.23;10.83;;;;;;;8.13;61.42;98283.97;6252147;22;20532;-88
2022/03/28 06:02:42;;;;;;;18.90;10.23;;;;;;;8.44;60.33;98278.31;6278041;22;20164;-89
2022/03/28 06:05:13;;;;;;;20.33;11.63;;;;;;;8.78;58.66;98293.16;6282150;22;20229;-85
2022/03/28 06:07:43;;;;;;;19.80;12.17;;;;;;;8.95;58.38;98283.38;6232778;22;20534;-85
2022/03/28 06:10:14;;;;;;;18.70;10.40;;;;;;;9.00;57.52;98275.53;6287227;22;20160;-89
2022/03/28 06:13:16;;;;;;;21.40;9.57;;;;;;;9.06;57.06;98279.72;6287486;22;20171;-89
2022/03/28 06:15:43;;;;;;;18.33;10.83;;;;;;;9.37;55.70;98280.81;6279674;22;20168;-91
2022/03/28 06:18:12;;;;;;;16.17;9.50;;;;;;;9.55;55.60;98301.94;6252087;22;20168;-89
2022/03/28 06:21:08;;;;;;;21.70;10.77;;;;;;;9.47;56.27;98303.00;6278069;22;20249;-86
2022/03/28 06:24:29;;;;;;;17.60;10.30;;;;;;;9.38;55.82;98292.81;6262316;22;20244;-87
2022/03/28 06:26:57;;;;;;;22.53;12.10;;;;;;;9.61;56.62;98286.28;6285236;22;20188;-91
2022/03/28 06:29:33;;;;;;;16.67;11.77;;;;;;;9.93;55.07;98287.31;6211081;22;20508;-87
2022/03/28 06:32:05;;;;;;;24.07;12.73;;;;;;;10.13;54.69;98248.88;6251565;22;20633;-87
2022/03/28 06:34:33;;;;;;;22.73;10.80;;;;;;;10.53;53.42;98291.03;6277913;22;20157;-92
2022/03/28 06:37:00;;;;;;;18.30;10.33;;;;;;;10.70;52.79;98291.41;6252471;22;20171;-93
2022/03/28 06:39:28;;;;;;;19.60;9.90;;;;;;;10.95;52.64;98294.22;6250440;22;20191;-85
2022/03/28 06:41:56;;;;;;;18.83;10.50;;;;;;;10.98;52.09;98276.84;6245812;22;20227;-84
2022/03/28 06:44:23;;;;;;;15.30;9.37;;;;;;;10.89;52.21;98274.50;6246003;22;20625;-86
2022/03/28 06:46:53;;;;;;;20.83;11.80;;;;;;;10.83;52.84;98290.22;6271907;22;20234;-87
2022/03/28 06:49:25;;;;;;;22.30;10.70;;;;;;;10.97;52.14;98302.78;6273439;22;20174;-85
2022/03/28 06:51:55;;;;;;;15.63;9.57;;;;;;;10.96;52.33;98285.56;6276671;22;20168;-90
2022/03/28 06:54:25;;;;;;;16.70;8.90;;;;;;;10.64;52.26;98263.09;6277673;22;20174;-93
2022/03/28 06:56:57;;;;;;;13.97;9.10;;;;;;;10.43;53.32;98253.28;6252960;22;20170;-92
2022/03/28 06:59:24;;;;;;;18.60;10.47;;;;;;;10.95;52.75;98289.88;6224930;22;20203;-89
2022/03/28 07:01:58;;;;;;;19.13;9.50;;;;;;;10.63;52.85;98253.63;6234421;22;20173;-87
2022/03/28 07:04:31;;;;;;;16.10;8.40;;;;;;;10.61;52.95;98278.72;6202110;22;20175;-90
2022/03/28 07:07:11;;;;;;;17.33;7.80;;;;;;;10.70;53.18;98287.97;6255479;22;20200;-86
2022/03/28 07:09:50;;;;;;;21.80;8.77;;;;;;;10.91;52.43;98257.16;6255411;22;20185;-87
2022/03/28 07:12:18;;;;;;;15.60;9.37;;;;;;;10.94;51.72;98194.03;6278987;22;20515;-90
2022/03/28 07:14:49;;;;;;;21.03;10.37;;;;;;;11.64;51.24;98273.19;6251772;22;20174;-91
2022/03/28 07:17:16;;;;;;;13.07;9.50;;;;;;;11.72;50.96;98277.28;6228173;22;20168;-92
2022/03/28 07:20:10;;;;;;;15.67;9.03;;;;;;;11.45;49.94;98200.28;6279965;22;20492;-88
2022/03/28 07:22:39;;;;;;;16.47;8.43;;;;;;;11.61;51.07;98235.22;6242365;22;20220;-92
2022/03/28 07:25:09;;;;;;;12.90;8.40;;;;;;;11.63;50.54;98237.75;6277400;22;20177;-90
2022/03/28 07:27:42;;;;;;;13.37;8.43;;;;;;;11.51;51.65;98274.44;6247035;22;20641;-88
2022/03/28 07:30:17;;;;;;;15.47;9.03;;;;;;;11.00;52.19;98214.59;6229815;22;20176;-89
2022/03/28 07:32:45;;;;;;;12.13;8.80;;;;;;;11.45;51.66;98268.56;6290400;22;20177;-86
2022/03/28 07:35:27;;;;;;;15.27;8.67;;;;;;;11.53;51.25;98251.91;6232283;22;20166;-87
2022/03/28 07:37:55;;;;;;;14.93;9.00;;;;;;;11.54;51.00;98215.53;6257331;22;20175;-87
2022/03/28 07:40:30;;;;;;;19.37;9.63;;;;;;;11.77;50.87;98233.88;6254203;22;20183;-88
2022/03/28 07:43:12;;;;;;;14.30;9.30;;;;;;;12.35;50.17;98255.34;6253967;22;20189;-87
2022/03/28 07:46:13;;;;;;;15.60;8.70;;;;;;;12.46;48.82;98209.09;6280776;22;20207;-89
2022/03/28 07:48:55;;;;;;;17.07;9.00;;;;;;;12.97;48.69;98248.84;6254971;22;20662;-85
2022/03/28 07:51:27;;;;;;;17.50;8.93;;;;;;;12.83;47.98;98175.69;6230874;22;20178;-86
2022/03/28 07:54:00;;;;;;;18.80;9.47;;;;;;;13.31;46.97;98223.34;6288099;22;20168;-88
2022/03/28 07:56:59;;;;;;;17.93;9.47;;;;;;;13.29;47.32;98217.31;6294804;22;20153;-85
2022/03/28 07:59:43;;;;;;;17.53;9.70;;;;;;;13.27;47.00;98207.88;6247189;22;20172;-86
2022/03/28 08:02:26;;;;;;;15.37;9.17;;;;;;;13.01;46.93;98139.47;6265216;22;20169;-87
2022/03/28 08:04:54;;;;;;;16.63;10.43;;;;;;;13.56;47.22;98194.63;6257969;22;20175;-91
2022/03/28 08:07:25;;;;;;;17.00;9.17;;;;;;;13.84;45.81;98231.66;6282669;22;20222;-87
2022/03/28 08:10:00;;;;;;;16.33;9.13;;;;;;;13.95;46.36;98224.25;6235070;22;20229;-94
2022/03/28 08:12:37;;;;;;;14.03;9.80;;;;;;;13.73;46.60;98213.00;6244007;22;20175;-89
2022/03/28 08:15:08;;;;;;;15.40;8.93;;;;;;;14.05;45.71;98227.34;6297981;22;20186;-87
2022/03/28 08:17:43;;;;;;;15.17;10.00;;;;;;;13.97;45.90;98230.28;6270430;22;20674;-85
2022/03/28 08:20:14;;;;;;;16.60;9.87;;;;;;;14.21;45.68;98223.19;6296803;22;20191;-89
2022/03/28 08:22:54;;;;;;;18.63;9.80;;;;;;;14.17;45.30;98214.66;6296347;22;20160;-89
2022/03/28 08:25:25;;;;;;;16.53;10.60;;;;;;;13.56;47.27;98215.44;6264373;22;20160;-91
2022/03/28 08:27:56;;;;;;;17.73;10.60;;;;;;;13.55;46.73;98195.50;6259216;22;20164;-91
2022/03/28 08:30:27;;;;;;;16.93;9.83;;;;;;;13.82;46.42;98197.03;6292646;22;20510;-91
2022/03/28 08:32:59;;;;;;;15.43;10.67;;;;;;;13.81;46.54;98217.00;6285261;22;20171;-88
2022/03/28 08:35:37;;;;;;;14.57;8.93;;;;;;;13.70;47.32;98187.94;6235734;22;20178;-91
2022/03/28 08:38:08;;;;;;;14.30;9.47;;;;;;;14.00;47.22;98211.91;6232942;22;20199;-93
2022/03/28 08:40:54;;;;;;;18.17;10.60;;;;;;;13.84;47.05;98205.63;6258659;22;20219;-92
2022/03/28 08:43:39;;;;;;;15.20;9.93;;;;;;;14.04;46.44;98190.03;6284183;22;20258;-86
2022/03/28 08:46:13;;;;;;;14.80;9.37;;;;;;;14.29;46.18;98192.50;6248836;22;20301;-91
2022/03/28 08:48:46;;;;;;;16.37;9.23;;;;;;;14.29;45.30;98190.75;6282576;22;20157;-88
2022/03/28 08:51:29;;;;;;;17.00;9.27;;;;;;;14.34;45.14;98159.28;6282609;22;20168;-87
2022/03/28 08:54:25;;;;;;;16.53;9.63;;;;;;;14.39;45.61;98152.94;6250608;22;20161;-90
2022/03/28 08:57:27;;;;;;;16.50;9.17;;;;;;;14.23;45.47;98175.34;6291885;22;20225;-86
2022/03/28 09:00:16;;;;;;;18.50;9.70;;;;;;;14.33;45.32;98184.47;6280677;22;20187;-93
2022/03/28 09:06:31;;;;;;;15.07;8.27;;;;;;;14.30;44.75;98170.75;6284011;22;20243;-88
2022/03/28 09:09:34;;;;;;;14.10;8.63;;;;;;;13.96;44.91;98160.00;6263678;22;20168;-94
2022/03/28 09:12:16;;;;;;;15.57;8.17;;;;;;;13.95;44.62;98159.13;6229854;22;20192;-88
2022/03/28 09:15:01;;;;;;;13.67;8.60;;;;;;;14.09;44.59;98130.78;6262750;22;20169;-89
2022/03/28 09:18:35;;;;;;;12.30;8.20;;;;;;;14.78;43.50;98147.75;6237691;22;20563;-95
2022/03/28 09:21:16;;;;;;;15.30;9.07;;;;;;;14.92;42.80;98152.34;6283287;22;20255;-93
2022/03/28 09:23:49;;;;;;;12.40;8.47;;;;;;;14.80;43.10;98100.72;6287536;22;20245;-90
2022/03/28 09:26:37;;;;;;;14.43;8.50;;;;;;;14.32;43.57;98062.09;6277385;22;20283;-86
2022/03/28 09:29:15;;;;;;;14.90;8.77;;;;;;;14.68;43.60;98144.69;6237387;22;20182;-89
2022/03/28 09:32:35;;;;;;;14.30;8.17;;;;;;;15.03;42.94;98130.06;6269891;22;20172;-93
2022/03/28 09:35:19;;;;;;;12.93;8.53;;;;;;;15.30;42.44;98131.41;6265038;22;20167;-90
2022/03/28 09:38:09;;;;;;;12.70;8.53;;;;;;;15.34;42.43;98129.47;6287288;22;20161;-91
2022/03/28 09:41:19;;;;;;;15.03;8.33;;;;;;;15.62;42.14;98116.81;6283002;22;20184;-91
2022/03/28 09:44:27;;;;;;;17.40;8.20;;;;;;;15.65;41.54;98116.69;6262063;22;20272;-85
2022/03/28 09:48:09;;;;;;;13.23;8.10;;;;;;;15.74;41.67;98113.63;6200561;23;20663;-88
2022/03/28 09:51:02;;;;;;;12.50;7.87;;;;;;;15.49;42.15;98100.06;6178824;23;20165;-91
2022/03/28 09:54:07;;;;;;;12.13;8.00;;;;;;;15.66;41.74;98100.06;6199804;23;20188;-86
2022/03/28 09:57:40;;;;;;;10.70;7.97;;;;;;;15.40;42.17;98106.53;6168467;23;20219;-92
2022/03/28 10:00:53;;;;;;;14.83;7.80;;;;;;;15.55;41.98;98085.88;6136736;23;20194;-87
2022/03/28 10:03:37;;;;;;;13.40;8.60;;;;;;;15.40;41.97;98056.09;6104872;23;20180;-87
2022/03/28 10:06:18;;;;;;;14.80;7.90;;;;;;;15.69;41.67;98076.44;6142043;23;20242;-87
2022/03/28 10:08:49;;;;;;;17.10;8.47;;;;;;;15.68;41.67;98077.38;6127703;23;20167;-90
2022/03/28 10:11:53;;;;;;;9.50;7.00;;;;;;;15.36;42.05;98055.41;6154004;23;20604;-90
2022/03/28 10:14:21;;;;;;;13.40;8.27;;;;;;;15.32;41.89;98026.91;6116163;23;20170;-89
2022/03/28 10:16:52;;;;;;;12.37;7.90;;;;;;;15.41;42.89;98056.00;6189080;22;20242;-92
2022/03/28 10:19:23;;;;;;;13.47;8.27;;;;;;;15.55;41.49;98007.53;6284313;22;20161;-90
2022/03/28 10:21:52;;;;;;;12.50;8.37;;;;;;;15.60;41.56;97998.53;6299115;22;20158;-86
2022/03/28 10:24:25;;;;;;;11.77;8.00;;;;;;;16.05;41.13;98040.59;6302013;22;20180;-85
2022/03/28 10:27:02;;;;;;;11.40;7.77;;;;;;;16.01;41.76;98041.69;6300487;22;20180;-86
2022/03/28 10:30:24;;;;;;;11.23;8.60;;;;;;;16.12;41.03;98030.69;6300135;22;20162;-85
2022/03/28 10:33:06;;;;;;;13.13;8.73;;;;;;;16.14;41.27;98027.06;6299885;22;20162;-87
2022/03/28 10:35:38;;;;;;;14.53;8.57;;;;;;;16.28;40.92;98005.41;6284399;22;20217;-86
2022/03/28 10:38:21;;;;;;;18.27;8.10;;;;;;;16.12;40.84;97967.97;6227629;22;20161;-85
2022/03/28 10:41:15;;;;;;;15.43;8.23;;;;;;;16.17;40.86;97973.81;6253177;22;20191;-85
2022/03/28 10:43:52;;;;;;;14.27;9.50;;;;;;;16.44;40.37;98008.09;6296415;22;20204;-86
2022/03/28 10:51:10;;;;;;;12.33;8.60;;;;;;;16.67;40.33;97987.63;6267983;22;20370;-86
2022/03/28 10:54:40;;;;;;;16.27;10.40;;;;;;;17.15;39.39;97983.19;6256770;22;20311;-86
2022/03/28 10:57:32;;;;;;;16.37;10.00;;;;;;;17.14;39.25;97969.28;6300332;22;20250;-86
2022/03/28 11:00:09;;;;;;;18.40;10.60;;;;;;;16.87;40.28;97963.84;6246706;22;20161;-86
2022/03/28 11:02:37;;;;;;;19.27;10.23;;;;;;;16.70;39.86;97923.84;6224599;22;20168;-86
2022/03/28 11:06:03;;;;;;;13.93;8.70;;;;;;;16.46;40.55;97938.25;6274593;22;20164;-87
2022/03/28 11:09:02;;;;;;;13.17;8.53;;;;;;;17.07;39.62;97952.22;6247827;22;20169;-85
2022/03/28 11:11:34;;;;;;;14.60;9.67;;;;;;;17.08;38.43;97893.72;6276437;22;20162;-88
2022/03/28 11:14:15;;;;;;;14.47;8.67;;;;;;;16.98;39.49;97944.91;6223082;22;20199;-86
2022/03/28 11:17:25;;;;;;;15.10;9.50;;;;;;;17.06;39.45;97913.91;6302086;22;20163;-86
2022/03/28 11:20:32;;;;;;;13.37;8.90;;;;;;;17.35;39.14;97899.13;6251036;22;20164;-84
2022/03/28 11:23:24;;;;;;;15.93;9.43;;;;;;;16.58;39.53;97861.75;6301399;22;20159;-86
2022/03/28 11:26:24;;;;;;;13.93;8.60;;;;;;;16.92;39.68;97913.84;6300153;22;20223;-88
2022/03/28 11:30:11;;;;;;;14.87;9.87;;;;;;;16.98;39.55;97892.59;6233321;22;20186;-86
2022/03/28 11:33:09;;;;;;;11.40;8.33;;;;;;;17.14;39.41;97901.22;6299865;22;20178;-85
2022/03/28 11:36:37;;;;;;;11.43;7.70;;;;;;;16.99;39.65;97892.47;6203356;23;20180;-87
2022/03/28 11:39:14;;;;;;;13.60;7.87;;;;;;;17.02;39.30;97881.00;6202926;23;20174;-89
2022/03/28 11:41:42;;;;;;;15.77;8.37;;;;;;;17.05;39.33;97880.81;6176920;23;20195;-87
2022/03/28 11:44:11;;;;;;;11.03;7.70;;;;;;;17.23;39.43;97882.34;6181355;23;20172;-87
2022/03/28 11:46:41;;;;;;;13.97;7.47;;;;;;;17.49;38.85;97883.44;6179932;23;20208;-89
2022/03/28 11:49:11;;;;;;;13.33;7.03;;;;;;;17.08;39.39;97875.41;6206074;23;20231;-89
2022/03/28 11:51:43;;;;;;;9.60;7.13;;;;;;;17.19;38.96;97867.75;6207286;23;20491;-87
2022/03/28 11:54:16;;;;;;;12.13;8.23;;;;;;;17.27;38.77;97830.66;6207786;23;20175;-89
2022/03/28 11:59:39;;;;;;;14.53;8.10;;;;;;;17.49;38.83;97860.75;6181162;23;20174;-88
2022/03/28 12:02:06;;;;;;;12.17;7.40;;;;;;;17.32;38.46;97811.13;6205615;23;20229;-90
2022/03/28 12:04:46;;;;;;;14.13;7.77;;;;;;;17.55;38.49;97842.03;6175006;23;20170;-92
2022/03/28 12:07:16;;;;;;;15.20;7.23;;;;;;;17.60;38.54;97812.91;6240264;22;20735;-90
2022/03/28 12:09:47;;;;;;;13.10;8.10;;;;;;;17.82;38.18;97800.19;6232445;22;20669;-87
2022/03/28 12:12:17;;;;;;;12.23;7.37;;;;;;;17.49;38.81;97805.75;6292882;22;20211;-89
2022/03/28 12:14:48;;;;;;;14.33;7.40;;;;;;;17.78;38.11;97822.28;6293147;22;20189;-86
2022/03/28 12:17:29;;;;;;;14.90;7.80;;;;;;;17.88;38.21;97824.25;6291071;22;20395;-88
2022/03/28 12:20:05;;;;;;;14.07;7.33;;;;;;;17.80;38.12;97802.88;6261923;22;20197;-87